createdAt,value
2018-02-12T00:00:35.039Z,2.93
2018-02-12T00:03:02.526Z,3.13
2018-02-12T00:05:30.771Z,3.03
2018-02-12T00:07:58.262Z,2.10
2018-02-12T00:10:25.734Z,1.73
2018-02-12T00:12:53.222Z,1.63
2018-02-12T00:15:20.690Z,2.00
2018-02-12T00:17:48.951Z,2.30
2018-02-12T00:20:16.422Z,1.53
2018-02-12T00:22:43.913Z,2.00
2018-02-12T00:25:11.387Z,2.10
2018-02-12T00:27:39.654Z,1.40
2018-02-12T00:30:07.122Z,1.73
2018-02-12T00:32:34.620Z,1.67
2018-02-12T00:35:02.855Z,1.80
2018-02-12T00:37:30.338Z,2.57
2018-02-12T00:39:57.807Z,2.50
2018-02-12T00:42:25.299Z,2.70
2018-02-12T00:44:52.766Z,2.00
2018-02-12T00:47:20.266Z,1.87
2018-02-12T00:49:48.505Z,2.63
2018-02-12T00:52:15.969Z,2.07
2018-02-12T00:54:43.463Z,2.53
2018-02-12T00:57:10.934Z,2.37
2018-02-12T00:59:38.426Z,2.67
2018-02-12T01:02:06.662Z,2.90
2018-02-12T01:04:34.150Z,1.83
2018-02-12T01:07:01.617Z,1.80
2018-02-12T01:09:29.110Z,2.17
2018-02-12T01:11:56.579Z,2.17
2018-02-12T01:14:24.074Z,2.43
2018-02-12T01:16:51.546Z,2.47
2018-02-12T01:19:19.039Z,1.30
2018-02-12T01:21:46.510Z,1.50
2018-02-12T01:24:14.779Z,1.47
2018-02-12T01:26:42.259Z,1.53
2018-02-12T01:29:09.726Z,2.03
2018-02-12T01:31:37.219Z,1.37
2018-02-12T01:34:04.694Z,1.60
2018-02-12T01:36:32.191Z,1.93
2018-02-12T01:38:59.670Z,1.43
2018-02-12T01:41:27.158Z,1.53
2018-02-12T01:43:55.394Z,2.30
2018-02-12T01:46:22.878Z,1.83
2018-02-12T01:48:50.347Z,1.80
2018-02-12T01:51:17.838Z,1.80
2018-02-12T01:53:46.079Z,1.60
2018-02-12T01:56:14.427Z,2.10
2018-02-12T01:58:42.662Z,1.70
2018-02-12T02:01:12.082Z,1.80
2018-02-12T02:03:39.550Z,1.70
2018-02-12T02:06:07.043Z,1.97
2018-02-12T02:08:34.518Z,1.97
2018-02-12T02:11:02.015Z,2.00
2018-02-12T02:13:30.255Z,2.53
2018-02-12T02:15:57.754Z,2.17
2018-02-12T02:18:25.227Z,2.43
2018-02-12T02:20:52.715Z,2.93
2018-02-12T02:23:20.190Z,3.07
2018-02-12T02:25:47.686Z,1.87
2018-02-12T02:28:15.162Z,2.30
2018-02-12T02:30:42.665Z,2.67
2018-02-12T02:33:10.143Z,2.27
2018-02-12T02:35:37.639Z,2.00
2018-02-12T02:38:05.119Z,2.23
2018-02-12T02:40:32.594Z,1.53
2018-02-12T02:43:00.084Z,1.90
2018-02-12T02:45:27.566Z,1.70
2018-02-12T02:47:55.059Z,1.40
2018-02-12T02:50:22.532Z,1.70
2018-02-12T02:52:50.023Z,1.70
2018-02-12T02:55:18.263Z,1.77
2018-02-12T02:57:45.755Z,1.50
2018-02-12T03:00:13.235Z,1.80
2018-02-12T03:02:41.513Z,1.53
2018-02-12T03:05:08.987Z,1.30
2018-02-12T03:07:36.475Z,1.47
2018-02-12T03:10:04.708Z,1.00
2018-02-12T03:12:34.135Z,2.00
2018-02-12T03:15:01.602Z,1.30
2018-02-12T03:17:29.095Z,1.63
2018-02-12T03:19:56.562Z,1.20
2018-02-12T03:22:24.053Z,1.70
2018-02-12T03:24:52.286Z,1.50
2018-02-12T03:27:19.779Z,1.50
2018-02-12T03:29:47.246Z,1.70
2018-02-12T03:32:14.745Z,1.17
2018-02-12T03:34:42.982Z,1.20
2018-02-12T03:37:10.467Z,1.33
2018-02-12T03:39:37.937Z,1.10
2018-02-12T03:42:05.426Z,1.10
2018-02-12T03:44:32.894Z,1.53
2018-02-12T03:47:00.395Z,1.67
2018-02-12T03:49:28.634Z,1.70
2018-02-12T03:51:56.130Z,1.20
2018-02-12T03:54:23.598Z,1.20
2018-02-12T03:56:51.091Z,1.80
2018-02-12T03:59:19.322Z,1.60
2018-02-12T04:01:46.816Z,1.10
2018-02-12T04:04:14.295Z,1.93
2018-02-12T04:06:41.799Z,1.17
2018-02-12T04:09:09.271Z,1.90
2018-02-12T04:11:36.769Z,1.30
2018-02-12T04:14:04.247Z,1.17
2018-02-12T04:16:31.734Z,1.43
2018-02-12T04:19:12.611Z,1.00
2018-02-12T04:21:40.103Z,1.20
2018-02-12T04:24:08.334Z,1.10
2018-02-12T04:26:35.823Z,1.30
2018-02-12T04:29:03.299Z,1.10
2018-02-12T04:31:30.795Z,1.93
2018-02-12T04:33:58.271Z,1.10
2018-02-12T04:36:25.759Z,1.60
2018-02-12T04:38:53.229Z,2.17
2018-02-12T04:41:21.482Z,1.40
2018-02-12T04:43:48.954Z,1.30
2018-02-12T04:46:16.438Z,3.00
2018-02-12T04:48:43.915Z,1.03
2018-02-12T04:51:11.410Z,1.57
2018-02-12T04:53:38.884Z,1.90
2018-02-12T04:56:06.395Z,1.10
2018-02-12T04:58:33.867Z,1.43
2018-02-12T05:01:01.344Z,1.23
2018-02-12T05:03:28.859Z,1.23
2018-02-12T05:05:56.365Z,0.87
2018-02-12T05:08:23.843Z,1.70
2018-02-12T05:10:51.310Z,1.73
2018-02-12T05:13:18.798Z,1.90
2018-02-12T05:15:46.267Z,2.10
2018-02-12T05:18:13.759Z,3.70
2018-02-12T05:20:42.003Z,8.33
2018-02-12T05:23:09.494Z,1.90
2018-02-12T05:25:36.962Z,2.03
2018-02-12T05:28:04.450Z,2.93
2018-02-12T05:30:32.683Z,1.30
2018-02-12T05:33:00.171Z,1.07
2018-02-12T05:35:27.649Z,1.60
2018-02-12T05:37:55.140Z,1.40
2018-02-12T05:40:22.615Z,1.83
2018-02-12T05:42:50.107Z,1.70
2018-02-12T05:45:17.578Z,1.07
2018-02-12T05:47:45.072Z,1.60
2018-02-12T05:50:13.311Z,1.80
2018-02-12T05:52:41.575Z,1.60
2018-02-12T05:55:09.040Z,1.67
2018-02-12T05:57:36.534Z,1.50
2018-02-12T06:00:04.006Z,1.30
2018-02-12T06:02:31.514Z,1.20
2018-02-12T06:04:58.996Z,1.60
2018-02-12T06:07:26.491Z,1.20
2018-02-12T06:09:53.965Z,1.43
2018-02-12T06:12:21.450Z,2.00
2018-02-12T06:14:48.915Z,1.33
2018-02-12T06:17:16.407Z,1.70
2018-02-12T06:19:44.651Z,2.20
2018-02-12T06:22:12.148Z,1.80
2018-02-12T06:24:39.619Z,1.50
2018-02-12T06:27:07.106Z,1.60
2018-02-12T06:29:35.347Z,2.10
2018-02-12T06:32:02.834Z,2.17
2018-02-12T06:34:30.307Z,1.87
2018-02-12T06:36:57.798Z,1.77
2018-02-12T06:39:26.054Z,2.97
2018-02-12T06:41:53.544Z,2.13
2018-02-12T06:44:21.024Z,2.00
2018-02-12T06:46:49.319Z,2.00
2018-02-12T06:49:16.768Z,1.93
2018-02-12T06:51:44.263Z,1.97
2018-02-12T06:54:12.499Z,1.90
2018-02-12T06:56:39.985Z,1.80
2018-02-12T06:59:07.481Z,1.60
2018-02-12T07:01:44.703Z,2.20
2018-02-12T07:04:12.171Z,1.60
2018-02-12T07:06:39.700Z,1.53
2018-02-12T07:09:07.162Z,1.60
2018-02-12T07:11:34.634Z,1.80
2018-02-12T07:14:02.123Z,1.20
2018-02-12T07:16:30.382Z,1.73
2018-02-12T07:18:57.875Z,1.63
2018-02-12T07:21:25.660Z,1.67
2018-02-12T07:23:53.923Z,1.90
2018-02-12T07:26:21.399Z,1.90
2018-02-12T07:28:48.886Z,1.90
2018-02-12T07:31:16.384Z,1.37
2018-02-12T07:33:45.046Z,1.87
2018-02-12T07:36:12.547Z,1.47
2018-02-12T07:38:40.044Z,3.97
2018-02-12T07:41:07.523Z,3.43
2018-02-12T07:43:35.015Z,1.90
2018-02-12T07:46:02.496Z,1.87
2018-02-12T07:48:30.762Z,2.60
2018-02-12T07:50:58.231Z,2.50
2018-02-12T07:53:27.628Z,2.80
2018-02-12T07:56:09.867Z,2.23
2018-02-12T07:58:37.365Z,2.37
2018-02-12T08:01:05.604Z,2.43
2018-02-12T08:03:33.096Z,3.80
2018-02-12T08:06:00.571Z,3.80
2018-02-12T08:08:28.054Z,2.67
2018-02-12T08:10:55.523Z,2.87
2018-02-12T08:13:23.017Z,2.00
2018-02-12T08:15:51.251Z,2.40
2018-02-12T08:18:18.755Z,2.43
2018-02-12T08:20:46.995Z,2.50
2018-02-12T08:23:14.484Z,2.50
2018-02-12T08:25:41.951Z,2.50
2018-02-12T08:28:09.447Z,2.03
2018-02-12T08:30:36.910Z,2.50
2018-02-12T08:33:04.406Z,2.13
2018-02-12T08:35:32.643Z,2.50
2018-02-12T08:38:00.135Z,2.23
2018-02-12T08:40:27.611Z,3.53
2018-02-12T08:42:55.102Z,2.27
2018-02-12T08:45:23.344Z,2.37
2018-02-12T08:47:50.836Z,2.70
2018-02-12T08:50:18.303Z,2.67
2018-02-12T08:52:45.798Z,3.53
2018-02-12T08:55:13.276Z,2.60
2018-02-12T08:57:41.526Z,2.50
2018-02-12T09:00:08.999Z,2.50
2018-02-12T09:02:36.494Z,3.10
2018-02-12T09:05:04.731Z,3.30
2018-02-12T09:07:32.227Z,3.47
2018-02-12T09:09:59.697Z,3.30
2018-02-12T09:12:27.195Z,3.13
2018-02-12T09:14:55.430Z,3.70
2018-02-12T09:17:22.905Z,3.50
2018-02-12T09:19:50.398Z,4.00
2018-02-12T09:22:17.862Z,3.70
2018-02-12T09:24:45.351Z,4.10
2018-02-12T09:27:13.595Z,4.93
2018-02-12T09:29:41.095Z,3.73
2018-02-12T09:32:08.561Z,3.43
2018-02-12T09:34:36.051Z,4.03
2018-02-12T09:37:04.287Z,4.03
2018-02-12T09:39:31.770Z,3.73
2018-02-12T09:41:59.250Z,3.30
2018-02-12T09:44:26.734Z,3.13
2018-02-12T09:46:54.203Z,3.43
2018-02-12T09:49:21.691Z,3.50
2018-02-12T09:51:49.930Z,2.90
2018-02-12T09:54:17.415Z,2.80
2018-02-12T09:56:44.891Z,3.00
2018-02-12T09:59:12.384Z,2.70
2018-02-12T10:01:40.613Z,2.80
2018-02-12T10:04:08.116Z,3.77
2018-02-12T10:06:35.599Z,4.50
2018-02-12T10:09:03.096Z,3.00
2018-02-12T10:11:30.587Z,3.67
2018-02-12T10:13:58.106Z,3.00
2018-02-12T10:16:25.582Z,3.43
2018-02-12T10:18:53.067Z,4.00
2018-02-12T10:21:21.315Z,3.10
2018-02-12T10:23:48.787Z,3.37
2018-02-12T10:26:16.391Z,2.87
2018-02-12T10:28:44.773Z,3.50
2018-02-12T10:31:12.242Z,3.17
2018-02-12T10:33:39.734Z,3.50
2018-02-12T10:36:07.976Z,2.80
2018-02-12T10:38:35.467Z,3.07
2018-02-12T10:41:02.987Z,3.40
2018-02-12T10:43:30.475Z,3.67
2018-02-12T10:45:57.951Z,3.33
2018-02-12T10:48:25.514Z,3.47
2018-02-12T10:50:52.979Z,3.67
2018-02-12T10:53:20.480Z,3.40
2018-02-12T10:55:48.071Z,3.67
2018-02-12T10:58:15.559Z,2.83
2018-02-12T11:00:43.789Z,3.30
2018-02-12T11:03:11.292Z,3.40
2018-02-12T11:05:38.761Z,3.10
2018-02-12T11:08:06.379Z,3.63
2018-02-12T11:10:34.798Z,2.77
2018-02-12T11:13:02.279Z,3.23
2018-02-12T11:15:29.767Z,3.00
2018-02-12T11:17:57.269Z,3.53
2018-02-12T11:20:24.742Z,3.50
2018-02-12T11:22:52.212Z,4.03
2018-02-12T11:25:19.708Z,3.17
2018-02-12T11:27:47.206Z,3.53
2018-02-12T11:30:14.698Z,2.60
2018-02-12T11:32:42.930Z,3.03
2018-02-12T11:35:10.418Z,2.77
2018-02-12T11:37:37.886Z,2.80
2018-02-12T11:40:05.408Z,2.70
2018-02-12T11:42:32.930Z,2.83
2018-02-12T11:45:00.426Z,3.40
2018-02-12T11:47:27.912Z,2.80
2018-02-12T11:49:56.178Z,3.30
2018-02-12T11:52:23.642Z,2.90
2018-02-12T11:54:51.135Z,2.93
2018-02-12T11:57:19.370Z,3.40
2018-02-12T11:59:46.868Z,3.10
2018-02-12T12:02:14.335Z,2.97
2018-02-12T12:04:41.833Z,2.67
2018-02-12T12:07:10.070Z,2.30
2018-02-12T12:09:37.559Z,2.70
2018-02-12T12:12:05.136Z,2.60
2018-02-12T12:14:32.662Z,2.60
2018-02-12T12:17:00.151Z,2.57
2018-02-12T12:19:28.407Z,2.57
2018-02-12T12:21:56.643Z,2.57
2018-02-12T12:24:24.130Z,2.27
2018-02-12T12:26:51.642Z,2.70
2018-02-12T12:29:19.247Z,2.30
2018-02-12T12:31:46.710Z,2.57
2018-02-12T12:34:14.206Z,3.07
2018-02-12T12:36:41.684Z,2.43
2018-02-12T12:39:09.292Z,2.70
2018-02-12T12:41:36.768Z,2.13
2018-02-12T12:44:04.262Z,2.43
2018-02-12T12:46:31.730Z,2.47
2018-02-12T12:48:59.235Z,2.43
2018-02-12T12:51:26.703Z,2.20
2018-02-12T12:53:54.198Z,2.13
2018-02-12T12:56:22.435Z,2.10
2018-02-12T12:58:51.450Z,2.27
2018-02-12T13:01:18.979Z,2.40
2018-02-12T13:03:46.470Z,2.17
2018-02-12T13:06:13.996Z,2.10
2018-02-12T13:08:41.462Z,2.60
2018-02-12T13:11:09.708Z,2.10
2018-02-12T13:13:37.198Z,1.77
2018-02-12T13:16:04.671Z,2.27
2018-02-12T13:18:32.171Z,2.10
2018-02-12T13:21:00.415Z,2.10
2018-02-12T13:23:27.902Z,1.70
2018-02-12T13:25:55.374Z,1.90
2018-02-12T13:28:22.855Z,1.70
2018-02-12T13:30:50.350Z,2.07
2018-02-12T13:33:17.820Z,1.90
2018-02-12T13:35:45.319Z,12.43
2018-02-12T13:38:12.794Z,2.63
2018-02-12T13:40:40.291Z,1.80
2018-02-12T13:43:07.758Z,1.80
2018-02-12T13:45:35.254Z,1.90
2018-02-12T13:48:03.494Z,1.93
2018-02-12T13:50:30.987Z,1.87
2018-02-12T13:52:58.460Z,2.20
2018-02-12T13:55:25.952Z,2.07
2018-02-12T13:57:54.191Z,2.00
2018-02-12T14:00:21.683Z,2.00
2018-02-12T14:02:50.134Z,1.67
2018-02-12T14:05:17.627Z,2.67
2018-02-12T14:07:45.164Z,1.83
2018-02-12T14:10:12.654Z,2.10
2018-02-12T14:12:40.140Z,2.80
2018-02-12T14:15:07.632Z,2.00
2018-02-12T14:17:35.103Z,1.37
2018-02-12T14:20:02.600Z,2.00
2018-02-12T14:22:30.072Z,1.90
2018-02-12T14:24:57.582Z,1.40
2018-02-12T14:27:25.051Z,1.60
2018-02-12T14:29:52.543Z,4.20
2018-02-12T14:32:20.028Z,2.13
2018-02-12T14:34:47.528Z,1.40
2018-02-12T14:37:15.012Z,1.40
2018-02-12T14:39:42.503Z,1.80
2018-02-12T14:42:09.981Z,1.53
2018-02-12T14:44:37.475Z,1.43
2018-02-12T14:47:04.947Z,1.43
2018-02-12T14:49:32.440Z,1.80
2018-02-12T14:51:59.919Z,2.13
2018-02-12T14:54:27.410Z,4.23
2018-02-12T14:56:54.891Z,5.60
2018-02-12T14:59:22.383Z,2.67
2018-02-12T15:01:49.858Z,3.90
2018-02-12T15:04:17.367Z,6.80
2018-02-12T15:06:44.911Z,3.40
2018-02-12T15:09:13.184Z,2.40
2018-02-12T15:11:40.662Z,4.10
2018-02-12T15:14:08.138Z,4.93
2018-02-12T15:16:35.634Z,5.20
2018-02-12T15:19:03.103Z,2.27
2018-02-12T15:21:30.620Z,1.97
2018-02-12T15:23:58.098Z,2.93
2018-02-12T15:26:25.590Z,1.37
2018-02-12T15:28:53.058Z,1.90
2018-02-12T15:31:20.551Z,1.83
2018-02-12T15:33:48.051Z,2.37
2018-02-12T15:36:15.546Z,1.77
2018-02-12T15:38:43.023Z,1.80
2018-02-12T15:41:10.515Z,1.70
2018-02-12T15:43:38.746Z,2.07
2018-02-12T15:46:06.242Z,1.97
2018-02-12T15:48:33.712Z,1.50
2018-02-12T15:51:01.198Z,1.20
2018-02-12T15:53:28.693Z,2.17
2018-02-12T15:55:56.945Z,1.10
2018-02-12T15:58:24.419Z,1.23
2018-02-12T16:00:51.915Z,1.40
2018-02-12T16:03:20.150Z,1.10
2018-02-12T16:05:47.646Z,1.63
2018-02-12T16:08:15.115Z,1.90
2018-02-12T16:10:42.612Z,1.37
2018-02-12T16:13:10.096Z,1.67
2018-02-12T16:15:37.582Z,1.73
2018-02-12T16:18:05.067Z,1.60
2018-02-12T16:20:32.556Z,1.40
2018-02-12T16:23:00.028Z,1.90
2018-02-12T16:25:27.523Z,1.97
2018-02-12T16:27:55.001Z,1.60
2018-02-12T16:30:23.259Z,2.70
2018-02-12T16:32:50.743Z,1.97
2018-02-12T16:35:18.249Z,2.27
2018-02-12T16:37:45.727Z,1.70
2018-02-12T16:40:13.210Z,2.57
2018-02-12T16:42:40.685Z,2.33
2018-02-12T16:45:08.179Z,2.27
2018-02-12T16:47:35.659Z,3.00
2018-02-12T16:50:03.150Z,2.63
2018-02-12T16:52:31.400Z,2.30
2018-02-12T16:54:58.894Z,3.80
2018-02-12T16:57:27.186Z,3.90
2018-02-12T16:59:54.658Z,2.77
2018-02-12T17:02:22.952Z,3.20
2018-02-12T17:04:55.496Z,3.70
2018-02-12T17:07:22.979Z,3.63
2018-02-12T17:09:50.455Z,2.80
2018-02-12T17:12:17.947Z,2.17
2018-02-12T17:14:46.238Z,2.70
2018-02-12T17:17:13.781Z,1.70
2018-02-12T17:19:41.270Z,1.90
2018-02-12T17:22:09.526Z,2.13
2018-02-12T17:24:36.996Z,2.00
2018-02-12T17:27:04.494Z,2.47
2018-02-12T17:29:31.962Z,1.77
2018-02-12T17:31:59.464Z,1.70
2018-02-12T17:34:27.016Z,2.10
2018-02-12T17:36:55.279Z,2.90
2018-02-12T17:39:22.763Z,2.63
2018-02-12T17:41:50.264Z,1.73
2018-02-12T17:44:17.726Z,2.80
2018-02-12T17:46:45.222Z,2.70
2018-02-12T17:49:12.699Z,2.23
2018-02-12T17:51:40.195Z,2.43
2018-02-12T17:54:07.676Z,1.80
2018-02-12T17:56:35.178Z,1.80
2018-02-12T17:59:03.410Z,2.63
2018-02-12T18:01:30.902Z,1.67
2018-02-12T18:03:58.381Z,1.90
2018-02-12T18:06:25.876Z,2.43
2018-02-12T18:08:53.355Z,6.00
2018-02-12T18:11:20.848Z,4.27
2018-02-12T18:13:48.322Z,2.90
2018-02-12T18:16:18.871Z,3.50
2018-02-12T18:18:47.252Z,2.07
2018-02-12T18:21:14.769Z,3.07
2018-02-12T18:23:43.056Z,2.57
2018-02-12T18:26:11.311Z,2.87
2018-02-12T18:28:38.786Z,2.50
2018-02-12T18:31:06.279Z,3.03
2018-02-12T18:33:33.751Z,2.87
2018-02-12T18:36:01.238Z,7.17
2018-02-12T18:38:29.483Z,14.30
2018-02-12T18:40:56.991Z,15.67
2018-02-12T18:43:25.277Z,15.43
2018-02-12T18:45:53.560Z,7.33
2018-02-12T18:48:21.035Z,4.77
2018-02-12T18:50:49.303Z,3.93
2018-02-12T18:53:17.761Z,5.80
2018-02-12T18:55:45.301Z,4.70
2018-02-12T18:58:12.792Z,3.97
2018-02-12T19:00:40.282Z,5.27
2018-02-12T19:03:07.767Z,5.37
2018-02-12T19:05:35.271Z,6.20
2018-02-12T19:08:03.523Z,7.23
2018-02-12T19:10:31.026Z,7.93
2018-02-12T19:12:59.274Z,8.30
2018-02-12T19:15:27.769Z,8.23
2018-02-12T19:17:55.259Z,6.80
2018-02-12T19:20:22.882Z,7.37
2018-02-12T19:22:50.457Z,6.00
2018-02-12T19:25:17.951Z,5.00
2018-02-12T19:27:45.534Z,6.30
2018-02-12T19:30:13.006Z,6.77
2018-02-12T19:32:40.505Z,7.80
2018-02-12T19:35:08.758Z,9.00
2018-02-12T19:37:36.254Z,7.53
2018-02-12T19:40:03.730Z,8.57
2018-02-12T19:42:31.995Z,8.50
2018-02-12T19:44:59.475Z,7.67
2018-02-12T19:47:26.980Z,9.23
2018-02-12T19:49:54.492Z,8.83
2018-02-12T19:52:21.990Z,7.40
2018-02-12T19:54:49.476Z,10.20
2018-02-12T19:57:17.755Z,11.97
2018-02-12T19:59:45.227Z,9.00
2018-02-12T20:02:13.490Z,8.70
2018-02-12T20:04:41.031Z,7.80
2018-02-12T20:07:09.255Z,6.27
2018-02-12T20:09:36.768Z,5.47
2018-02-12T20:12:04.303Z,6.57
2018-02-12T20:14:32.556Z,5.70
2018-02-12T20:17:00.071Z,5.73
2018-02-12T20:19:28.312Z,5.37
2018-02-12T20:21:55.845Z,6.40
2018-02-12T20:24:24.088Z,6.27
2018-02-12T20:26:51.597Z,9.17
2018-02-12T20:29:19.851Z,6.07
2018-02-12T20:31:47.344Z,5.73
2018-02-12T20:34:14.831Z,5.40
2018-02-12T20:36:43.113Z,6.27
2018-02-12T20:39:17.226Z,7.13
2018-02-12T20:41:44.733Z,5.80
2018-02-12T20:44:12.220Z,5.57
2018-02-12T20:46:39.718Z,4.83
2018-02-12T20:49:07.206Z,4.70
2018-02-12T20:51:34.698Z,5.20
2018-02-12T20:54:02.168Z,5.80
2018-02-12T20:56:30.418Z,5.07
2018-02-12T20:58:57.899Z,4.70
2018-02-12T21:01:25.403Z,3.90
2018-02-12T21:03:52.882Z,3.97
2018-02-12T21:06:20.383Z,4.60
2018-02-12T21:08:47.851Z,6.00
2018-02-12T21:11:15.347Z,3.93
2018-02-12T21:13:42.827Z,5.73
2018-02-12T21:16:11.083Z,5.20
2018-02-12T21:18:38.565Z,5.80
2018-02-12T21:21:06.063Z,6.57
2018-02-12T21:23:34.316Z,5.30
2018-02-12T21:26:01.808Z,4.70
2018-02-12T21:28:29.283Z,5.70
2018-02-12T21:30:57.530Z,4.40
2018-02-12T21:33:25.019Z,5.10
2018-02-12T21:35:52.505Z,4.83
2018-02-12T21:38:20.000Z,3.40
2018-02-12T21:40:47.476Z,3.57
2018-02-12T21:43:14.980Z,4.17
2018-02-12T21:45:42.459Z,3.60
2018-02-12T21:48:09.951Z,5.57
2018-02-12T21:50:37.427Z,6.13
2018-02-12T21:53:04.915Z,4.47
2018-02-12T21:55:33.150Z,4.60
2018-02-12T21:58:00.647Z,4.63
2018-02-12T22:00:28.124Z,5.53
2018-02-12T22:02:55.611Z,4.47
2018-02-12T22:05:23.847Z,4.23
2018-02-12T22:07:51.342Z,4.80
2018-02-12T22:10:18.815Z,4.03
2018-02-12T22:12:46.299Z,4.70
2018-02-12T22:15:14.540Z,4.90
2018-02-12T22:17:42.023Z,3.73
2018-02-12T22:20:09.496Z,4.00
2018-02-12T22:22:36.987Z,4.10
2018-02-12T22:25:04.459Z,4.77
2018-02-12T22:27:31.952Z,4.30
2018-02-12T22:29:59.430Z,4.47
2018-02-12T22:32:26.928Z,3.97
2018-02-12T22:34:54.398Z,4.60
2018-02-12T22:37:21.896Z,9.20
2018-02-12T22:39:49.370Z,4.30
2018-02-12T22:42:16.867Z,8.90
2018-02-12T22:44:45.107Z,4.87
2018-02-12T22:47:12.610Z,4.90
2018-02-12T22:49:40.855Z,4.23
2018-02-12T22:52:08.348Z,4.23
2018-02-12T22:54:35.823Z,4.03
2018-02-12T22:57:03.324Z,5.53
2018-02-12T22:59:31.567Z,5.03
2018-02-12T23:01:59.059Z,4.67
2018-02-12T23:04:26.535Z,4.10
2018-02-12T23:06:54.792Z,4.23
2018-02-12T23:09:22.267Z,4.10
2018-02-12T23:11:49.760Z,4.27
2018-02-12T23:14:17.230Z,4.77
2018-02-12T23:16:50.471Z,5.03
2018-02-12T23:19:17.946Z,5.00
2018-02-12T23:21:45.440Z,5.00
2018-02-12T23:24:12.919Z,4.37
2018-02-12T23:26:40.424Z,5.23
2018-02-12T23:29:08.667Z,4.80
2018-02-12T23:31:36.162Z,4.73
2018-02-12T23:34:03.648Z,5.17
2018-02-12T23:36:31.906Z,4.50
2018-02-12T23:39:01.383Z,4.40
2018-02-12T23:41:28.896Z,4.63
2018-02-12T23:43:56.379Z,4.70
2018-02-12T23:46:24.643Z,5.03
2018-02-12T23:48:52.140Z,5.40
2018-02-12T23:51:19.615Z,4.43
2018-02-12T23:53:47.102Z,4.73
2018-02-12T23:56:15.339Z,4.77
2018-02-12T23:58:42.832Z,5.30
